sensor_id;sensor_type;location;lat;lon;timestamp;P1;durP1;ratioP1;P2;durP2;ratioP2
44137;SDS011;29800;55.942;37.314;2023-04-24T00:00:41;12.50;;;6.82;;
44137;SDS011;29800;55.942;37.314;2023-04-24T00:03:10;19.55;;;7.93;;
44137;SDS011;29800;55.942;37.314;2023-04-24T00:05:38;19.23;;;8.13;;
44137;SDS011;29800;55.942;37.314;2023-04-24T00:08:05;18.75;;;9.27;;
44137;SDS011;29800;55.942;37.314;2023-04-24T00:10:32;16.55;;;9.18;;
44137;SDS011;29800;55.942;37.314;2023-04-24T00:12:58;22.92;;;8.18;;
44137;SDS011;29800;55.942;37.314;2023-04-24T00:15:24;14.65;;;8.50;;
44137;SDS011;29800;55.942;37.314;2023-04-24T00:17:51;15.90;;;8.52;;
44137;SDS011;29800;55.942;37.314;2023-04-24T00:20:18;15.77;;;7.68;;
44137;SDS011;29800;55.942;37.314;2023-04-24T00:22:45;17.00;;;8.05;;
44137;SDS011;29800;55.942;37.314;2023-04-24T00:25:11;14.98;;;7.15;;
44137;SDS011;29800;55.942;37.314;2023-04-24T00:27:37;15.73;;;7.57;;
44137;SDS011;29800;55.942;37.314;2023-04-24T00:30:04;15.00;;;7.38;;
44137;SDS011;29800;55.942;37.314;2023-04-24T00:32:31;17.88;;;7.68;;
44137;SDS011;29800;55.942;37.314;2023-04-24T00:34:58;15.43;;;7.07;;
44137;SDS011;29800;55.942;37.314;2023-04-24T00:37:24;17.35;;;7.05;;
44137;SDS011;29800;55.942;37.314;2023-04-24T00:39:51;16.75;;;7.13;;
44137;SDS011;29800;55.942;37.314;2023-04-24T00:42:17;14.65;;;7.00;;
44137;SDS011;29800;55.942;37.314;2023-04-24T00:44:44;15.15;;;6.68;;
44137;SDS011;29800;55.942;37.314;2023-04-24T00:47:10;15.52;;;7.43;;
44137;SDS011;29800;55.942;37.314;2023-04-24T00:49:37;16.65;;;7.15;;
44137;SDS011;29800;55.942;37.314;2023-04-24T00:52:04;14.75;;;7.28;;
44137;SDS011;29800;55.942;37.314;2023-04-24T00:54:33;18.23;;;6.97;;
44137;SDS011;29800;55.942;37.314;2023-04-24T00:57:00;13.50;;;7.18;;
44137;SDS011;29800;55.942;37.314;2023-04-24T00:59:28;17.58;;;7.63;;
44137;SDS011;29800;55.942;37.314;2023-04-24T01:01:55;19.35;;;7.63;;
44137;SDS011;29800;55.942;37.314;2023-04-24T01:04:21;22.83;;;7.40;;
44137;SDS011;29800;55.942;37.314;2023-04-24T01:06:48;18.33;;;7.72;;
44137;SDS011;29800;55.942;37.314;2023-04-24T01:09:16;17.27;;;7.30;;
44137;SDS011;29800;55.942;37.314;2023-04-24T01:11:43;19.77;;;8.00;;
44137;SDS011;29800;55.942;37.314;2023-04-24T01:14:11;17.95;;;7.88;;
44137;SDS011;29800;55.942;37.314;2023-04-24T01:16:37;18.65;;;8.57;;
44137;SDS011;29800;55.942;37.314;2023-04-24T01:19:04;16.20;;;8.27;;
44137;SDS011;29800;55.942;37.314;2023-04-24T01:21:34;15.32;;;8.20;;
44137;SDS011;29800;55.942;37.314;2023-04-24T01:24:06;16.88;;;8.80;;
44137;SDS011;29800;55.942;37.314;2023-04-24T01:26:33;22.08;;;8.80;;
44137;SDS011;29800;55.942;37.314;2023-04-24T01:28:59;16.98;;;8.63;;
44137;SDS011;29800;55.942;37.314;2023-04-24T01:31:26;17.02;;;8.75;;
44137;SDS011;29800;55.942;37.314;2023-04-24T01:33:53;22.10;;;9.15;;
44137;SDS011;29800;55.942;37.314;2023-04-24T01:36:20;17.73;;;8.32;;
44137;SDS011;29800;55.942;37.314;2023-04-24T01:38:48;18.25;;;8.68;;
44137;SDS011;29800;55.942;37.314;2023-04-24T01:41:14;18.63;;;8.50;;
44137;SDS011;29800;55.942;37.314;2023-04-24T01:43:41;18.25;;;7.68;;
44137;SDS011;29800;55.942;37.314;2023-04-24T01:46:07;15.32;;;7.25;;
44137;SDS011;29800;55.942;37.314;2023-04-24T01:48:35;15.75;;;7.88;;
44137;SDS011;29800;55.942;37.314;2023-04-24T01:51:01;15.82;;;6.95;;
44137;SDS011;29800;55.942;37.314;2023-04-24T01:53:29;16.13;;;7.38;;
44137;SDS011;29800;55.942;37.314;2023-04-24T01:55:55;13.75;;;6.90;;
44137;SDS011;29800;55.942;37.314;2023-04-24T01:58:24;16.70;;;6.80;;
44137;SDS011;29800;55.942;37.314;2023-04-24T02:00:51;24.58;;;6.95;;
44137;SDS011;29800;55.942;37.314;2023-04-24T02:03:18;13.95;;;6.47;;
44137;SDS011;29800;55.942;37.314;2023-04-24T02:05:44;14.10;;;6.35;;
44137;SDS011;29800;55.942;37.314;2023-04-24T02:08:10;15.23;;;5.93;;
44137;SDS011;29800;55.942;37.314;2023-04-24T02:10:37;12.98;;;5.53;;
44137;SDS011;29800;55.942;37.314;2023-04-24T02:13:04;15.57;;;6.53;;
44137;SDS011;29800;55.942;37.314;2023-04-24T02:15:30;14.18;;;6.38;;
44137;SDS011;29800;55.942;37.314;2023-04-24T02:17:57;12.52;;;6.05;;
44137;SDS011;29800;55.942;37.314;2023-04-24T02:20:23;13.13;;;6.38;;
44137;SDS011;29800;55.942;37.314;2023-04-24T02:22:50;27.98;;;8.52;;
44137;SDS011;29800;55.942;37.314;2023-04-24T02:25:17;155.05;;;19.75;;
44137;SDS011;29800;55.942;37.314;2023-04-24T02:27:43;129.07;;;17.55;;
44137;SDS011;29800;55.942;37.314;2023-04-24T02:30:10;144.25;;;17.23;;
44137;SDS011;29800;55.942;37.314;2023-04-24T02:32:36;142.05;;;16.02;;
44137;SDS011;29800;55.942;37.314;2023-04-24T02:35:04;106.68;;;13.68;;
44137;SDS011;29800;55.942;37.314;2023-04-24T02:37:31;98.28;;;14.43;;
44137;SDS011;29800;55.942;37.314;2023-04-24T02:39:58;104.13;;;13.88;;
44137;SDS011;29800;55.942;37.314;2023-04-24T02:42:24;106.85;;;14.43;;
44137;SDS011;29800;55.942;37.314;2023-04-24T02:44:50;90.32;;;14.30;;
44137;SDS011;29800;55.942;37.314;2023-04-24T02:47:17;95.65;;;15.43;;
44137;SDS011;29800;55.942;37.314;2023-04-24T02:49:43;86.82;;;13.27;;
44137;SDS011;29800;55.942;37.314;2023-04-24T02:52:10;70.35;;;11.32;;
44137;SDS011;29800;55.942;37.314;2023-04-24T02:54:36;62.50;;;12.50;;
44137;SDS011;29800;55.942;37.314;2023-04-24T02:57:03;78.90;;;14.52;;
44137;SDS011;29800;55.942;37.314;2023-04-24T02:59:29;71.50;;;14.05;;
44137;SDS011;29800;55.942;37.314;2023-04-24T03:01:56;64.00;;;12.52;;
44137;SDS011;29800;55.942;37.314;2023-04-24T03:04:22;68.43;;;12.50;;
44137;SDS011;29800;55.942;37.314;2023-04-24T03:06:48;58.35;;;13.02;;
44137;SDS011;29800;55.942;37.314;2023-04-24T03:09:19;67.32;;;11.20;;
44137;SDS011;29800;55.942;37.314;2023-04-24T03:11:47;76.10;;;11.32;;
44137;SDS011;29800;55.942;37.314;2023-04-24T03:14:15;68.28;;;10.13;;
44137;SDS011;29800;55.942;37.314;2023-04-24T03:16:42;64.18;;;11.57;;
44137;SDS011;29800;55.942;37.314;2023-04-24T03:19:08;52.40;;;8.55;;
44137;SDS011;29800;55.942;37.314;2023-04-24T03:21:42;50.63;;;9.30;;
44137;SDS011;29800;55.942;37.314;2023-04-24T03:24:09;23.50;;;8.73;;
44137;SDS011;29800;55.942;37.314;2023-04-24T03:26:36;30.25;;;7.82;;
44137;SDS011;29800;55.942;37.314;2023-04-24T03:29:26;28.98;;;8.15;;
44137;SDS011;29800;55.942;37.314;2023-04-24T03:31:52;23.20;;;7.40;;
44137;SDS011;29800;55.942;37.314;2023-04-24T03:34:19;25.50;;;7.47;;
44137;SDS011;29800;55.942;37.314;2023-04-24T03:36:46;28.15;;;9.30;;
44137;SDS011;29800;55.942;37.314;2023-04-24T03:39:15;30.13;;;9.02;;
44137;SDS011;29800;55.942;37.314;2023-04-24T03:41:48;31.63;;;9.57;;
44137;SDS011;29800;55.942;37.314;2023-04-24T03:44:22;27.15;;;9.27;;
44137;SDS011;29800;55.942;37.314;2023-04-24T03:46:50;29.95;;;9.15;;
44137;SDS011;29800;55.942;37.314;2023-04-24T03:49:18;28.02;;;8.90;;
44137;SDS011;29800;55.942;37.314;2023-04-24T03:51:47;21.42;;;8.20;;
44137;SDS011;29800;55.942;37.314;2023-04-24T03:54:20;25.15;;;8.40;;
44137;SDS011;29800;55.942;37.314;2023-04-24T03:56:48;41.75;;;9.13;;
44137;SDS011;29800;55.942;37.314;2023-04-24T03:59:15;27.92;;;8.20;;
44137;SDS011;29800;55.942;37.314;2023-04-24T04:01:46;18.58;;;8.05;;
44137;SDS011;29800;55.942;37.314;2023-04-24T04:04:15;24.77;;;8.48;;
44137;SDS011;29800;55.942;37.314;2023-04-24T04:06:42;17.95;;;7.50;;
44137;SDS011;29800;55.942;37.314;2023-04-24T04:09:10;17.48;;;8.07;;
44137;SDS011;29800;55.942;37.314;2023-04-24T04:11:36;18.05;;;7.90;;
44137;SDS011;29800;55.942;37.314;2023-04-24T04:14:04;14.82;;;6.43;;
44137;SDS011;29800;55.942;37.314;2023-04-24T04:16:33;22.27;;;7.45;;
44137;SDS011;29800;55.942;37.314;2023-04-24T04:19:02;25.13;;;8.57;;
44137;SDS011;29800;55.942;37.314;2023-04-24T04:21:29;29.63;;;9.00;;
44137;SDS011;29800;55.942;37.314;2023-04-24T04:24:08;17.00;;;8.50;;
44137;SDS011;29800;55.942;37.314;2023-04-24T04:26:41;16.80;;;8.07;;
44137;SDS011;29800;55.942;37.314;2023-04-24T04:29:13;24.65;;;8.90;;
44137;SDS011;29800;55.942;37.314;2023-04-24T04:31:42;17.55;;;7.68;;
44137;SDS011;29800;55.942;37.314;2023-04-24T04:34:11;17.70;;;8.60;;
44137;SDS011;29800;55.942;37.314;2023-04-24T04:36:41;12.68;;;6.90;;
44137;SDS011;29800;55.942;37.314;2023-04-24T04:39:31;17.15;;;7.72;;
44137;SDS011;29800;55.942;37.314;2023-04-24T04:42:04;17.15;;;7.60;;
44137;SDS011;29800;55.942;37.314;2023-04-24T04:44:41;14.57;;;7.65;;
44137;SDS011;29800;55.942;37.314;2023-04-24T04:47:10;14.13;;;8.07;;
44137;SDS011;29800;55.942;37.314;2023-04-24T04:49:38;14.10;;;6.45;;
44137;SDS011;29800;55.942;37.314;2023-04-24T04:52:09;13.65;;;6.85;;
44137;SDS011;29800;55.942;37.314;2023-04-24T04:54:36;17.50;;;7.22;;
44137;SDS011;29800;55.942;37.314;2023-04-24T04:57:02;10.82;;;6.55;;
44137;SDS011;29800;55.942;37.314;2023-04-24T04:59:29;11.35;;;6.20;;
44137;SDS011;29800;55.942;37.314;2023-04-24T05:02:02;16.42;;;7.22;;
44137;SDS011;29800;55.942;37.314;2023-04-24T05:04:29;17.77;;;7.15;;
44137;SDS011;29800;55.942;37.314;2023-04-24T05:06:59;14.13;;;6.32;;
44137;SDS011;29800;55.942;37.314;2023-04-24T05:09:28;13.73;;;7.35;;
44137;SDS011;29800;55.942;37.314;2023-04-24T05:12:00;14.15;;;6.53;;
44137;SDS011;29800;55.942;37.314;2023-04-24T05:14:31;14.40;;;6.65;;
44137;SDS011;29800;55.942;37.314;2023-04-24T05:16:57;14.13;;;6.20;;
44137;SDS011;29800;55.942;37.314;2023-04-24T05:19:26;12.60;;;6.90;;
44137;SDS011;29800;55.942;37.314;2023-04-24T05:21:52;12.50;;;5.72;;
44137;SDS011;29800;55.942;37.314;2023-04-24T05:24:19;12.20;;;6.50;;
44137;SDS011;29800;55.942;37.314;2023-04-24T05:26:59;11.63;;;6.47;;
44137;SDS011;29800;55.942;37.314;2023-04-24T05:29:32;12.25;;;6.18;;
44137;SDS011;29800;55.942;37.314;2023-04-24T05:31:59;15.90;;;6.68;;
44137;SDS011;29800;55.942;37.314;2023-04-24T05:34:28;11.65;;;6.75;;
44137;SDS011;29800;55.942;37.314;2023-04-24T05:36:55;17.40;;;6.93;;
44137;SDS011;29800;55.942;37.314;2023-04-24T05:39:22;17.23;;;6.90;;
44137;SDS011;29800;55.942;37.314;2023-04-24T05:41:51;13.68;;;6.13;;
44137;SDS011;29800;55.942;37.314;2023-04-24T05:44:17;11.13;;;6.40;;
44137;SDS011;29800;55.942;37.314;2023-04-24T05:46:43;10.98;;;6.50;;
44137;SDS011;29800;55.942;37.314;2023-04-24T05:49:11;10.07;;;5.68;;
44137;SDS011;29800;55.942;37.314;2023-04-24T05:51:37;15.05;;;7.03;;
44137;SDS011;29800;55.942;37.314;2023-04-24T05:54:05;10.77;;;5.65;;
44137;SDS011;29800;55.942;37.314;2023-04-24T05:56:32;9.20;;;5.80;;
44137;SDS011;29800;55.942;37.314;2023-04-24T05:59:03;13.93;;;6.13;;
44137;SDS011;29800;55.942;37.314;2023-04-24T06:01:30;9.73;;;5.55;;
44137;SDS011;29800;55.942;37.314;2023-04-24T06:04:05;10.55;;;5.40;;
44137;SDS011;29800;55.942;37.314;2023-04-24T06:06:32;11.77;;;5.80;;
44137;SDS011;29800;55.942;37.314;2023-04-24T06:08:59;9.75;;;6.00;;
44137;SDS011;29800;55.942;37.314;2023-04-24T06:11:26;9.05;;;5.57;;
44137;SDS011;29800;55.942;37.314;2023-04-24T06:13:53;12.27;;;5.18;;
44137;SDS011;29800;55.942;37.314;2023-04-24T06:16:54;9.85;;;5.40;;
44137;SDS011;29800;55.942;37.314;2023-04-24T06:19:31;13.10;;;5.32;;
44137;SDS011;29800;55.942;37.314;2023-04-24T06:21:57;9.00;;;4.80;;
44137;SDS011;29800;55.942;37.314;2023-04-24T06:24:28;9.55;;;5.15;;
44137;SDS011;29800;55.942;37.314;2023-04-24T06:26:54;7.90;;;4.50;;
44137;SDS011;29800;55.942;37.314;2023-04-24T06:29:22;9.00;;;5.20;;
44137;SDS011;29800;55.942;37.314;2023-04-24T06:31:49;12.18;;;5.32;;
44137;SDS011;29800;55.942;37.314;2023-04-24T06:34:16;10.68;;;5.57;;
44137;SDS011;29800;55.942;37.314;2023-04-24T06:36:43;9.13;;;5.30;;
44137;SDS011;29800;55.942;37.314;2023-04-24T06:39:09;10.18;;;5.03;;
44137;SDS011;29800;55.942;37.314;2023-04-24T06:41:35;10.35;;;5.05;;
44137;SDS011;29800;55.942;37.314;2023-04-24T06:44:02;13.68;;;4.95;;
44137;SDS011;29800;55.942;37.314;2023-04-24T06:46:28;9.57;;;5.18;;
44137;SDS011;29800;55.942;37.314;2023-04-24T06:48:55;12.80;;;5.20;;
44137;SDS011;29800;55.942;37.314;2023-04-24T06:51:23;11.85;;;5.40;;
44137;SDS011;29800;55.942;37.314;2023-04-24T06:53:51;10.98;;;5.45;;
44137;SDS011;29800;55.942;37.314;2023-04-24T06:56:18;7.35;;;4.35;;
44137;SDS011;29800;55.942;37.314;2023-04-24T06:58:46;6.70;;;4.22;;
44137;SDS011;29800;55.942;37.314;2023-04-24T07:01:12;9.52;;;5.07;;
44137;SDS011;29800;55.942;37.314;2023-04-24T07:03:38;7.50;;;4.70;;
44137;SDS011;29800;55.942;37.314;2023-04-24T07:06:05;7.93;;;4.53;;
44137;SDS011;29800;55.942;37.314;2023-04-24T07:08:32;9.38;;;5.07;;
44137;SDS011;29800;55.942;37.314;2023-04-24T07:10:59;8.07;;;4.90;;
44137;SDS011;29800;55.942;37.314;2023-04-24T07:13:26;7.75;;;5.10;;
44137;SDS011;29800;55.942;37.314;2023-04-24T07:15:53;9.60;;;5.90;;
44137;SDS011;29800;55.942;37.314;2023-04-24T07:18:21;14.90;;;6.10;;
44137;SDS011;29800;55.942;37.314;2023-04-24T07:20:48;11.93;;;6.00;;
44137;SDS011;29800;55.942;37.314;2023-04-24T07:23:16;12.75;;;6.05;;
44137;SDS011;29800;55.942;37.314;2023-04-24T07:25:42;10.65;;;5.80;;
44137;SDS011;29800;55.942;37.314;2023-04-24T07:28:09;9.77;;;6.22;;
44137;SDS011;29800;55.942;37.314;2023-04-24T07:30:36;9.85;;;6.38;;
44137;SDS011;29800;55.942;37.314;2023-04-24T07:33:02;10.65;;;5.95;;
44137;SDS011;29800;55.942;37.314;2023-04-24T07:35:28;9.13;;;5.97;;
44137;SDS011;29800;55.942;37.314;2023-04-24T07:37:55;8.93;;;6.20;;
44137;SDS011;29800;55.942;37.314;2023-04-24T07:40:21;11.35;;;6.43;;
44137;SDS011;29800;55.942;37.314;2023-04-24T07:42:48;13.07;;;6.57;;
44137;SDS011;29800;55.942;37.314;2023-04-24T07:45:14;8.50;;;5.85;;
44137;SDS011;29800;55.942;37.314;2023-04-24T07:47:41;11.75;;;6.20;;
44137;SDS011;29800;55.942;37.314;2023-04-24T07:50:09;10.43;;;6.18;;
44137;SDS011;29800;55.942;37.314;2023-04-24T07:52:36;7.18;;;5.70;;
44137;SDS011;29800;55.942;37.314;2023-04-24T07:55:02;14.13;;;5.70;;
44137;SDS011;29800;55.942;37.314;2023-04-24T07:57:29;9.05;;;5.05;;
44137;SDS011;29800;55.942;37.314;2023-04-24T07:59:55;9.13;;;5.50;;
44137;SDS011;29800;55.942;37.314;2023-04-24T08:02:22;9.73;;;5.43;;
44137;SDS011;29800;55.942;37.314;2023-04-24T08:04:55;7.07;;;3.55;;
44137;SDS011;29800;55.942;37.314;2023-04-24T08:07:21;6.25;;;3.25;;
44137;SDS011;29800;55.942;37.314;2023-04-24T08:09:49;11.88;;;3.70;;
44137;SDS011;29800;55.942;37.314;2023-04-24T08:12:15;9.38;;;3.97;;
44137;SDS011;29800;55.942;37.314;2023-04-24T08:14:41;7.88;;;4.40;;
44137;SDS011;29800;55.942;37.314;2023-04-24T08:17:08;6.82;;;3.83;;
44137;SDS011;29800;55.942;37.314;2023-04-24T08:19:34;6.97;;;3.60;;
44137;SDS011;29800;55.942;37.314;2023-04-24T08:22:01;7.90;;;3.88;;
44137;SDS011;29800;55.942;37.314;2023-04-24T08:24:28;4.65;;;2.80;;
44137;SDS011;29800;55.942;37.314;2023-04-24T08:26:54;3.97;;;2.65;;
44137;SDS011;29800;55.942;37.314;2023-04-24T08:29:22;5.63;;;3.25;;
44137;SDS011;29800;55.942;37.314;2023-04-24T08:31:48;5.57;;;3.30;;
44137;SDS011;29800;55.942;37.314;2023-04-24T08:34:15;8.18;;;3.03;;
44137;SDS011;29800;55.942;37.314;2023-04-24T08:36:41;6.28;;;2.95;;
44137;SDS011;29800;55.942;37.314;2023-04-24T08:39:07;6.85;;;3.70;;
44137;SDS011;29800;55.942;37.314;2023-04-24T08:41:34;8.15;;;3.58;;
44137;SDS011;29800;55.942;37.314;2023-04-24T08:44:02;8.70;;;3.85;;
44137;SDS011;29800;55.942;37.314;2023-04-24T08:46:29;7.15;;;4.05;;
44137;SDS011;29800;55.942;37.314;2023-04-24T08:48:56;8.40;;;3.85;;
44137;SDS011;29800;55.942;37.314;2023-04-24T08:51:23;7.55;;;4.00;;
44137;SDS011;29800;55.942;37.314;2023-04-24T08:53:52;7.57;;;3.58;;
44137;SDS011;29800;55.942;37.314;2023-04-24T08:56:20;6.75;;;3.60;;
44137;SDS011;29800;55.942;37.314;2023-04-24T08:58:50;6.50;;;3.78;;
44137;SDS011;29800;55.942;37.314;2023-04-24T09:01:18;5.82;;;3.47;;
44137;SDS011;29800;55.942;37.314;2023-04-24T09:03:46;6.90;;;4.00;;
44137;SDS011;29800;55.942;37.314;2023-04-24T09:06:14;8.55;;;3.42;;
44137;SDS011;29800;55.942;37.314;2023-04-24T09:08:43;6.45;;;3.65;;
44137;SDS011;29800;55.942;37.314;2023-04-24T09:11:11;7.65;;;3.72;;
44137;SDS011;29800;55.942;37.314;2023-04-24T09:13:37;10.32;;;3.97;;
44137;SDS011;29800;55.942;37.314;2023-04-24T09:16:04;6.60;;;3.90;;
44137;SDS011;29800;55.942;37.314;2023-04-24T09:18:30;5.65;;;3.70;;
44137;SDS011;29800;55.942;37.314;2023-04-24T09:21:03;7.50;;;3.80;;
44137;SDS011;29800;55.942;37.314;2023-04-24T09:23:32;8.55;;;3.60;;
44137;SDS011;29800;55.942;37.314;2023-04-24T09:25:59;7.25;;;3.45;;
44137;SDS011;29800;55.942;37.314;2023-04-24T09:28:30;8.93;;;3.25;;
44137;SDS011;29800;55.942;37.314;2023-04-24T09:31:09;6.45;;;3.63;;
44137;SDS011;29800;55.942;37.314;2023-04-24T09:33:40;6.78;;;3.30;;
44137;SDS011;29800;55.942;37.314;2023-04-24T09:36:19;9.93;;;3.30;;
44137;SDS011;29800;55.942;37.314;2023-04-24T09:38:45;6.93;;;3.20;;
44137;SDS011;29800;55.942;37.314;2023-04-24T09:41:13;5.05;;;3.22;;
44137;SDS011;29800;55.942;37.314;2023-04-24T09:43:39;7.10;;;3.50;;
44137;SDS011;29800;55.942;37.314;2023-04-24T09:46:06;5.93;;;2.90;;
44137;SDS011;29800;55.942;37.314;2023-04-24T09:48:35;6.32;;;3.20;;
44137;SDS011;29800;55.942;37.314;2023-04-24T09:51:03;6.40;;;3.10;;
44137;SDS011;29800;55.942;37.314;2023-04-24T09:53:32;8.27;;;3.17;;
44137;SDS011;29800;55.942;37.314;2023-04-24T09:56:06;7.40;;;3.10;;
44137;SDS011;29800;55.942;37.314;2023-04-24T09:58:34;6.45;;;3.13;;
44137;SDS011;29800;55.942;37.314;2023-04-24T10:01:04;8.48;;;3.47;;
44137;SDS011;29800;55.942;37.314;2023-04-24T10:03:31;14.35;;;3.35;;
44137;SDS011;29800;55.942;37.314;2023-04-24T10:06:02;6.38;;;3.33;;
44137;SDS011;29800;55.942;37.314;2023-04-24T10:08:35;7.03;;;3.25;;
44137;SDS011;29800;55.942;37.314;2023-04-24T10:11:02;5.78;;;3.50;;
44137;SDS011;29800;55.942;37.314;2023-04-24T10:13:29;6.78;;;3.67;;
44137;SDS011;29800;55.942;37.314;2023-04-24T10:15:56;7.13;;;3.35;;
44137;SDS011;29800;55.942;37.314;2023-04-24T10:18:22;7.93;;;3.28;;
44137;SDS011;29800;55.942;37.314;2023-04-24T10:20:49;8.25;;;3.13;;
44137;SDS011;29800;55.942;37.314;2023-04-24T10:23:16;5.50;;;3.05;;
44137;SDS011;29800;55.942;37.314;2023-04-24T10:25:44;7.20;;;3.00;;
44137;SDS011;29800;55.942;37.314;2023-04-24T10:28:11;8.50;;;3.22;;
44137;SDS011;29800;55.942;37.314;2023-04-24T10:30:38;6.70;;;3.40;;
44137;SDS011;29800;55.942;37.314;2023-04-24T10:33:08;5.30;;;3.13;;
44137;SDS011;29800;55.942;37.314;2023-04-24T10:35:36;5.63;;;3.25;;
44137;SDS011;29800;55.942;37.314;2023-04-24T10:38:05;10.20;;;3.40;;
44137;SDS011;29800;55.942;37.314;2023-04-24T10:40:34;6.03;;;3.28;;
44137;SDS011;29800;55.942;37.314;2023-04-24T10:43:02;5.57;;;3.05;;
44137;SDS011;29800;55.942;37.314;2023-04-24T10:45:33;5.57;;;3.20;;
44137;SDS011;29800;55.942;37.314;2023-04-24T10:48:04;6.07;;;3.28;;
44137;SDS011;29800;55.942;37.314;2023-04-24T10:53:17;5.85;;;3.50;;
44137;SDS011;29800;55.942;37.314;2023-04-24T10:55:46;6.65;;;3.40;;
44137;SDS011;29800;55.942;37.314;2023-04-24T10:58:12;11.13;;;3.90;;
44137;SDS011;29800;55.942;37.314;2023-04-24T11:00:40;6.45;;;3.47;;
44137;SDS011;29800;55.942;37.314;2023-04-24T11:03:12;7.72;;;3.33;;
44137;SDS011;29800;55.942;37.314;2023-04-24T11:08:22;6.80;;;3.33;;
44137;SDS011;29800;55.942;37.314;2023-04-24T11:10:54;11.32;;;3.65;;
44137;SDS011;29800;55.942;37.314;2023-04-24T11:13:27;5.07;;;3.35;;
44137;SDS011;29800;55.942;37.314;2023-04-24T11:16:15;7.72;;;3.55;;
44137;SDS011;29800;55.942;37.314;2023-04-24T11:21:45;6.57;;;3.70;;
44137;SDS011;29800;55.942;37.314;2023-04-24T11:24:23;6.68;;;3.70;;
44137;SDS011;29800;55.942;37.314;2023-04-24T11:29:41;6.03;;;3.40;;
44137;SDS011;29800;55.942;37.314;2023-04-24T11:34:57;6.85;;;3.30;;
44137;SDS011;29800;55.942;37.314;2023-04-24T11:37:35;7.03;;;3.20;;
44137;SDS011;29800;55.942;37.314;2023-04-24T11:40:03;7.65;;;3.55;;
44137;SDS011;29800;55.942;37.314;2023-04-24T11:42:35;6.97;;;3.70;;
44137;SDS011;29800;55.942;37.314;2023-04-24T11:45:09;7.18;;;3.75;;
44137;SDS011;29800;55.942;37.314;2023-04-24T11:47:38;6.50;;;3.70;;
44137;SDS011;29800;55.942;37.314;2023-04-24T11:50:06;7.68;;;3.55;;
44137;SDS011;29800;55.942;37.314;2023-04-24T11:52:39;9.55;;;4.38;;
44137;SDS011;29800;55.942;37.314;2023-04-24T11:55:28;6.32;;;3.97;;
44137;SDS011;29800;55.942;37.314;2023-04-24T11:57:55;7.03;;;3.58;;
44137;SDS011;29800;55.942;37.314;2023-04-24T12:00:27;5.70;;;3.45;;
44137;SDS011;29800;55.942;37.314;2023-04-24T12:03:05;5.80;;;3.70;;
44137;SDS011;29800;55.942;37.314;2023-04-24T12:05:35;7.78;;;3.70;;
44137;SDS011;29800;55.942;37.314;2023-04-24T12:08:02;7.05;;;3.58;;
44137;SDS011;29800;55.942;37.314;2023-04-24T12:10:29;7.43;;;3.40;;
44137;SDS011;29800;55.942;37.314;2023-04-24T12:12:57;7.40;;;3.70;;
44137;SDS011;29800;55.942;37.314;2023-04-24T12:15:24;7.38;;;4.15;;
44137;SDS011;29800;55.942;37.314;2023-04-24T12:17:52;5.35;;;3.47;;
44137;SDS011;29800;55.942;37.314;2023-04-24T12:20:24;10.30;;;3.63;;
44137;SDS011;29800;55.942;37.314;2023-04-24T12:22:54;5.97;;;3.45;;
44137;SDS011;29800;55.942;37.314;2023-04-24T12:25:25;4.72;;;3.40;;
44137;SDS011;29800;55.942;37.314;2023-04-24T12:28:14;7.57;;;3.88;;
44137;SDS011;29800;55.942;37.314;2023-04-24T12:30:41;8.23;;;3.28;;
44137;SDS011;29800;55.942;37.314;2023-04-24T12:33:19;5.03;;;3.30;;
44137;SDS011;29800;55.942;37.314;2023-04-24T12:35:48;5.47;;;3.25;;
44137;SDS011;29800;55.942;37.314;2023-04-24T12:38:21;6.38;;;3.15;;
44137;SDS011;29800;55.942;37.314;2023-04-24T12:41:00;7.00;;;3.10;;
44137;SDS011;29800;55.942;37.314;2023-04-24T12:43:30;7.28;;;3.40;;
44137;SDS011;29800;55.942;37.314;2023-04-24T12:45:57;5.80;;;3.38;;
44137;SDS011;29800;55.942;37.314;2023-04-24T12:48:27;7.75;;;3.30;;
44137;SDS011;29800;55.942;37.314;2023-04-24T12:50:54;4.35;;;2.90;;
44137;SDS011;29800;55.942;37.314;2023-04-24T12:53:22;4.78;;;2.97;;
44137;SDS011;29800;55.942;37.314;2023-04-24T12:55:48;5.38;;;2.80;;
44137;SDS011;29800;55.942;37.314;2023-04-24T12:58:21;11.15;;;3.20;;
44137;SDS011;29800;55.942;37.314;2023-04-24T13:00:48;7.38;;;3.10;;
44137;SDS011;29800;55.942;37.314;2023-04-24T13:03:14;6.80;;;3.40;;
44137;SDS011;29800;55.942;37.314;2023-04-24T13:05:42;7.20;;;3.10;;
44137;SDS011;29800;55.942;37.314;2023-04-24T13:08:09;6.68;;;3.05;;
44137;SDS011;29800;55.942;37.314;2023-04-24T13:10:35;5.97;;;2.70;;
44137;SDS011;29800;55.942;37.314;2023-04-24T13:13:02;6.82;;;3.33;;
44137;SDS011;29800;55.942;37.314;2023-04-24T13:15:29;5.75;;;3.40;;
44137;SDS011;29800;55.942;37.314;2023-04-24T13:17:55;5.88;;;3.13;;
44137;SDS011;29800;55.942;37.314;2023-04-24T13:20:21;4.38;;;2.92;;
44137;SDS011;29800;55.942;37.314;2023-04-24T13:22:48;6.07;;;3.05;;
44137;SDS011;29800;55.942;37.314;2023-04-24T13:25:14;6.60;;;3.00;;
44137;SDS011;29800;55.942;37.314;2023-04-24T13:27:42;5.10;;;2.88;;
44137;SDS011;29800;55.942;37.314;2023-04-24T13:30:09;4.32;;;2.42;;
44137;SDS011;29800;55.942;37.314;2023-04-24T13:32:36;4.20;;;2.50;;
44137;SDS011;29800;55.942;37.314;2023-04-24T13:35:02;5.75;;;2.72;;
44137;SDS011;29800;55.942;37.314;2023-04-24T13:37:29;5.05;;;2.78;;
44137;SDS011;29800;55.942;37.314;2023-04-24T13:39:55;5.97;;;2.90;;
44137;SDS011;29800;55.942;37.314;2023-04-24T13:42:22;6.82;;;3.50;;
44137;SDS011;29800;55.942;37.314;2023-04-24T13:44:48;7.28;;;3.10;;
44137;SDS011;29800;55.942;37.314;2023-04-24T13:47:15;4.95;;;2.75;;
44137;SDS011;29800;55.942;37.314;2023-04-24T13:49:41;6.40;;;3.03;;
44137;SDS011;29800;55.942;37.314;2023-04-24T13:52:07;5.90;;;2.58;;
44137;SDS011;29800;55.942;37.314;2023-04-24T13:54:35;6.65;;;3.28;;
44137;SDS011;29800;55.942;37.314;2023-04-24T13:57:02;6.85;;;2.90;;
44137;SDS011;29800;55.942;37.314;2023-04-24T13:59:29;6.32;;;3.13;;
44137;SDS011;29800;55.942;37.314;2023-04-24T14:01:55;7.80;;;3.05;;
44137;SDS011;29800;55.942;37.314;2023-04-24T14:04:21;5.28;;;2.88;;
44137;SDS011;29800;55.942;37.314;2023-04-24T14:06:48;12.93;;;3.50;;
44137;SDS011;29800;55.942;37.314;2023-04-24T14:09:14;4.55;;;2.63;;
44137;SDS011;29800;55.942;37.314;2023-04-24T14:11:41;4.53;;;2.70;;
44137;SDS011;29800;55.942;37.314;2023-04-24T14:14:07;7.07;;;2.78;;
44137;SDS011;29800;55.942;37.314;2023-04-24T14:16:34;7.10;;;3.25;;
44137;SDS011;29800;55.942;37.314;2023-04-24T14:19:00;8.07;;;3.45;;
44137;SDS011;29800;55.942;37.314;2023-04-24T14:21:26;5.68;;;3.40;;
44137;SDS011;29800;55.942;37.314;2023-04-24T14:23:53;4.72;;;2.70;;
44137;SDS011;29800;55.942;37.314;2023-04-24T14:26:19;6.25;;;3.10;;
44137;SDS011;29800;55.942;37.314;2023-04-24T14:28:45;5.72;;;3.33;;
44137;SDS011;29800;55.942;37.314;2023-04-24T14:31:12;8.15;;;3.58;;
44137;SDS011;29800;55.942;37.314;2023-04-24T14:33:38;7.50;;;3.33;;
44137;SDS011;29800;55.942;37.314;2023-04-24T14:36:04;9.00;;;3.10;;
44137;SDS011;29800;55.942;37.314;2023-04-24T14:38:31;7.75;;;3.40;;
44137;SDS011;29800;55.942;37.314;2023-04-24T14:40:57;7.43;;;3.30;;
44137;SDS011;29800;55.942;37.314;2023-04-24T14:43:24;6.35;;;3.30;;
44137;SDS011;29800;55.942;37.314;2023-04-24T14:45:50;9.38;;;4.10;;